createdAt,value
2018-10-06T00:00:25.631Z,94519.37
2018-10-06T00:02:53.805Z,94527.49
2018-10-06T00:05:22.099Z,94530.84
2018-10-06T00:07:50.273Z,94520.96
2018-10-06T00:10:18.417Z,94515.38
2018-10-06T00:12:46.744Z,94519.21
2018-10-06T00:15:14.965Z,94522.30
2018-10-06T00:17:43.279Z,94520.77
2018-10-06T00:20:11.442Z,94515.31
2018-10-06T00:22:39.667Z,94518.08
2018-10-06T00:25:09.073Z,94513.48
2018-10-06T00:27:37.576Z,94512.55
2018-10-06T00:30:06.053Z,94507.81
2018-10-06T00:32:34.484Z,94505.66
2018-10-06T00:35:02.617Z,94502.59
2018-10-06T00:37:30.838Z,94510.09
2018-10-06T00:39:59.246Z,94508.97
2018-10-06T00:42:27.428Z,94509.30
2018-10-06T00:44:55.519Z,94504.30
2018-10-06T00:47:23.719Z,94505.09
2018-10-06T00:49:51.906Z,94497.59
2018-10-06T00:52:20.052Z,94507.48
2018-10-06T00:54:48.272Z,94508.34
2018-10-06T00:57:16.395Z,94504.30
2018-10-06T00:59:44.522Z,94503.55
2018-10-06T01:02:12.875Z,94501.67
2018-10-06T01:04:41.103Z,94502.97
2018-10-06T01:07:09.361Z,94505.27
2018-10-06T01:09:37.607Z,94505.39
2018-10-06T01:12:05.805Z,94506.30
2018-10-06T01:14:33.948Z,94497.34
2018-10-06T01:17:02.316Z,94501.39
2018-10-06T01:19:30.680Z,94499.69
2018-10-06T01:21:58.870Z,94495.56
2018-10-06T01:24:27.087Z,94497.19
2018-10-06T01:26:55.192Z,94496.55
2018-10-06T01:29:23.457Z,94500.39
2018-10-06T01:31:51.926Z,94500.64
2018-10-06T01:34:20.845Z,94494.06
2018-10-06T01:36:49.225Z,94495.60
2018-10-06T01:39:17.491Z,94496.55
2018-10-06T01:41:45.620Z,94496.35
2018-10-06T01:44:13.810Z,94490.02
2018-10-06T01:46:42.117Z,94492.34
2018-10-06T01:49:10.319Z,94492.56
2018-10-06T01:51:38.447Z,94489.19
2018-10-06T01:54:06.799Z,94491.52
2018-10-06T01:56:35.056Z,94491.92
2018-10-06T01:59:03.218Z,94492.72
2018-10-06T02:01:31.443Z,94488.00
2018-10-06T02:03:59.518Z,94496.33
2018-10-06T02:06:27.696Z,94493.28
2018-10-06T02:08:55.806Z,94496.22
2018-10-06T02:11:23.928Z,94498.89
2018-10-06T02:13:52.075Z,94493.70
2018-10-06T02:16:20.299Z,94491.80
2018-10-06T02:18:48.504Z,94492.56
2018-10-06T02:21:16.892Z,94491.27
2018-10-06T02:23:45.083Z,94488.58
2018-10-06T02:26:13.241Z,94484.59
2018-10-06T02:28:41.448Z,94484.86
2018-10-06T02:31:09.662Z,94482.58
2018-10-06T02:33:37.924Z,94480.95
2018-10-06T02:36:06.125Z,94484.55
2018-10-06T02:38:34.287Z,94481.21
2018-10-06T02:41:02.599Z,94477.69
2018-10-06T02:43:30.690Z,94484.32
2018-10-06T02:45:58.994Z,94479.73
2018-10-06T02:48:27.324Z,94483.34
2018-10-06T02:50:55.590Z,94479.96
2018-10-06T02:53:23.914Z,94474.84
2018-10-06T02:55:52.026Z,94481.84
2018-10-06T02:58:20.299Z,94476.35
2018-10-06T03:00:48.426Z,94479.45
2018-10-06T03:03:16.542Z,94481.20
2018-10-06T03:05:44.778Z,94482.33
2018-10-06T03:08:12.864Z,94479.60
2018-10-06T03:10:41.838Z,94474.37
2018-10-06T03:13:09.965Z,94478.73
2018-10-06T03:15:38.166Z,94480.93
2018-10-06T03:18:06.420Z,94478.56
2018-10-06T03:20:34.567Z,94481.38
2018-10-06T03:23:02.765Z,94477.70
2018-10-06T03:25:31.005Z,94472.08
2018-10-06T03:27:59.455Z,94474.42
2018-10-06T03:30:27.597Z,94475.44
2018-10-06T03:32:55.681Z,94476.55
2018-10-06T03:35:23.869Z,94475.55
2018-10-06T03:37:52.031Z,94479.80
2018-10-06T03:40:20.160Z,94476.70
2018-10-06T03:42:48.578Z,94482.75
2018-10-06T03:45:16.973Z,94473.48
2018-10-06T03:47:45.170Z,94472.44
2018-10-06T03:50:13.452Z,94469.96
2018-10-06T03:52:41.707Z,94470.14
2018-10-06T03:55:09.865Z,94464.99
2018-10-06T03:57:38.155Z,94469.66
2018-10-06T04:00:06.380Z,94458.83
2018-10-06T04:02:34.539Z,94466.09
2018-10-06T04:05:02.892Z,94461.23
2018-10-06T04:07:31.126Z,94462.58
2018-10-06T04:09:59.340Z,94460.70
2018-10-06T04:12:27.616Z,94449.39
2018-10-06T04:14:55.713Z,94454.61
2018-10-06T04:17:23.848Z,94453.95
2018-10-06T04:19:52.112Z,94446.11
2018-10-06T04:22:20.282Z,94448.34
2018-10-06T04:24:48.464Z,94444.44
2018-10-06T04:27:16.610Z,94448.41
2018-10-06T04:29:44.744Z,94449.69
2018-10-06T04:32:12.877Z,94447.02
2018-10-06T04:34:41.057Z,94444.09
2018-10-06T04:37:09.176Z,94448.66
2018-10-06T04:39:37.447Z,94444.73
2018-10-06T04:42:05.634Z,94444.91
2018-10-06T04:44:33.886Z,94443.33
2018-10-06T04:47:02.075Z,94445.52
2018-10-06T04:49:30.190Z,94442.56
2018-10-06T04:51:58.316Z,94447.93
2018-10-06T04:54:26.757Z,94444.69
2018-10-06T04:56:54.947Z,94444.20
2018-10-06T04:59:23.159Z,94450.44
2018-10-06T05:01:51.650Z,94444.83
2018-10-06T05:04:19.834Z,94458.20
2018-10-06T05:06:48.016Z,94448.00
2018-10-06T05:09:16.158Z,94457.37
2018-10-06T05:11:44.319Z,94459.31
2018-10-06T05:14:12.498Z,94458.19
2018-10-06T05:16:40.662Z,94458.68
2018-10-06T05:19:08.816Z,94453.69
2018-10-06T05:21:36.901Z,94455.23
2018-10-06T05:24:05.100Z,94462.86
2018-10-06T05:26:33.376Z,94460.09
2018-10-06T05:29:01.559Z,94462.01
2018-10-06T05:31:29.855Z,94463.44
2018-10-06T05:33:58.699Z,94465.36
2018-10-06T05:36:27.182Z,94468.58
2018-10-06T05:38:56.483Z,94468.70
2018-10-06T05:41:25.616Z,94468.94
2018-10-06T05:43:54.155Z,94471.16
2018-10-06T05:46:22.770Z,94473.04
2018-10-06T05:48:51.156Z,94476.81
2018-10-06T05:51:19.938Z,94479.52
2018-10-06T05:53:49.469Z,94481.02
2018-10-06T05:56:18.149Z,94482.59
2018-10-06T05:58:47.762Z,94483.92
2018-10-06T06:01:16.567Z,94494.41
2018-10-06T06:03:45.377Z,94495.11
2018-10-06T06:06:14.161Z,94500.05
2018-10-06T06:08:43.674Z,94501.98
2018-10-06T06:11:12.752Z,94504.77
2018-10-06T06:13:41.572Z,94511.02
2018-10-06T06:16:10.010Z,94510.02
2018-10-06T06:18:38.422Z,94517.48
2018-10-06T06:21:07.202Z,94516.53
2018-10-06T06:23:36.556Z,94520.48
2018-10-06T06:26:05.905Z,94513.78
2018-10-06T06:28:34.299Z,94514.83
2018-10-06T06:31:02.916Z,94519.70
2018-10-06T06:33:31.579Z,94523.50
2018-10-06T06:36:00.109Z,94516.38
2018-10-06T06:38:28.391Z,94515.29
2018-10-06T06:40:56.921Z,94511.23
2018-10-06T06:43:25.359Z,94515.35
2018-10-06T06:45:53.953Z,94517.43
2018-10-06T06:48:22.310Z,94513.30
2018-10-06T06:50:50.624Z,94507.22
2018-10-06T06:53:19.054Z,94513.41
2018-10-06T06:55:47.897Z,94512.45
2018-10-06T06:58:16.461Z,94514.33
2018-10-06T07:00:44.740Z,94509.66
2018-10-06T07:03:13.221Z,94510.20
2018-10-06T07:05:43.617Z,94514.03
2018-10-06T07:08:12.040Z,94506.11
2018-10-06T07:10:40.461Z,94498.22
2018-10-06T07:13:08.765Z,94502.27
2018-10-06T07:15:37.221Z,94500.38
2018-10-06T07:18:05.722Z,94501.83
2018-10-06T07:20:34.172Z,94496.91
2018-10-06T07:23:02.891Z,94496.83
2018-10-06T07:25:31.418Z,94500.25
2018-10-06T07:28:00.257Z,94498.67
2018-10-06T07:30:28.937Z,94499.73
2018-10-06T07:32:57.461Z,94496.61
2018-10-06T07:35:26.367Z,94497.36
2018-10-06T07:37:54.649Z,94494.42
2018-10-06T07:40:23.160Z,94493.92
2018-10-06T07:42:51.813Z,94478.42
2018-10-06T07:45:20.192Z,94480.53
2018-10-06T07:47:48.736Z,94483.21
2018-10-06T07:50:17.368Z,94481.25
2018-10-06T07:52:45.711Z,94479.30
2018-10-06T07:55:14.345Z,94475.73
2018-10-06T07:57:43.461Z,94467.72
2018-10-06T08:00:12.377Z,94467.81
2018-10-06T08:02:42.158Z,94472.06
2018-10-06T08:05:10.981Z,94464.32
2018-10-06T08:07:40.267Z,94468.08
2018-10-06T08:10:08.926Z,94461.67
2018-10-06T08:12:37.944Z,94464.87
2018-10-06T08:15:06.371Z,94453.42
2018-10-06T08:17:35.737Z,94455.27
2018-10-06T08:20:04.141Z,94445.78
2018-10-06T08:22:32.618Z,94441.99
2018-10-06T08:25:01.827Z,94441.20
2018-10-06T08:27:31.054Z,94435.88
2018-10-06T08:30:00.302Z,94438.08
2018-10-06T08:32:29.805Z,94428.94
2018-10-06T08:34:58.230Z,94427.84
2018-10-06T08:37:26.728Z,94421.27
2018-10-06T08:39:55.357Z,94419.23
2018-10-06T08:42:24.700Z,94407.73
2018-10-06T08:44:53.137Z,94411.89
2018-10-06T08:47:21.337Z,94414.34
2018-10-06T08:49:49.685Z,94411.72
2018-10-06T08:52:17.912Z,94407.19
2018-10-06T08:54:46.064Z,94417.17
2018-10-06T08:57:14.485Z,94410.03
2018-10-06T08:59:42.663Z,94406.03
2018-10-06T09:02:10.752Z,94401.23
2018-10-06T09:04:39.067Z,94394.35
2018-10-06T09:07:07.620Z,94393.44
2018-10-06T09:09:36.002Z,94385.78
2018-10-06T09:12:04.158Z,94378.48
2018-10-06T09:14:32.233Z,94380.72
2018-10-06T09:17:00.519Z,94375.59
2018-10-06T09:19:28.735Z,94366.41
2018-10-06T09:21:56.893Z,94367.31
2018-10-06T09:24:25.019Z,94365.56
2018-10-06T09:26:53.359Z,94361.80
2018-10-06T09:29:21.506Z,94356.73
2018-10-06T09:31:49.711Z,94354.23
2018-10-06T09:34:17.826Z,94353.67
2018-10-06T09:36:46.022Z,94354.32
2018-10-06T09:39:14.349Z,94352.83
2018-10-06T09:41:42.530Z,94346.08
2018-10-06T09:44:10.890Z,94343.95
2018-10-06T09:46:39.352Z,94337.71
2018-10-06T09:49:07.555Z,94341.42
2018-10-06T09:51:35.636Z,94330.09
2018-10-06T09:54:03.820Z,94329.36
2018-10-06T09:56:31.981Z,94329.33
2018-10-06T09:59:00.678Z,94319.99
2018-10-06T10:01:34.251Z,94314.64
2018-10-06T10:04:08.128Z,94316.57
2018-10-06T10:06:36.326Z,94312.32
2018-10-06T10:09:06.586Z,94304.97
2018-10-06T10:11:34.658Z,94306.93
2018-10-06T10:14:02.732Z,94299.83
2018-10-06T10:16:30.852Z,94295.58
2018-10-06T10:18:58.966Z,94290.72
2018-10-06T10:21:27.339Z,94277.73
2018-10-06T10:23:55.672Z,94272.94
2018-10-06T10:26:23.881Z,94266.84
2018-10-06T10:28:52.127Z,94258.61
2018-10-06T10:31:20.744Z,94249.03
2018-10-06T10:33:48.904Z,94243.14
2018-10-06T10:36:17.336Z,94241.88
2018-10-06T10:38:45.895Z,94231.47
2018-10-06T10:41:14.509Z,94226.11
2018-10-06T10:43:42.898Z,94225.17
2018-10-06T10:46:11.524Z,94215.05
2018-10-06T10:48:39.849Z,94213.58
2018-10-06T10:51:08.182Z,94202.28
2018-10-06T10:53:36.515Z,94205.58
2018-10-06T10:56:04.851Z,94196.13
2018-10-06T10:58:33.358Z,94197.36
2018-10-06T11:01:02.358Z,94183.52
2018-10-06T11:03:31.685Z,94172.02
2018-10-06T11:06:00.716Z,94173.17
2018-10-06T11:08:29.282Z,94173.93
2018-10-06T11:10:57.802Z,94168.01
2018-10-06T11:13:26.385Z,94160.33
2018-10-06T11:15:54.885Z,94156.92
2018-10-06T11:18:24.327Z,94158.11
2018-10-06T11:20:53.110Z,94153.55
2018-10-06T11:23:21.783Z,94149.61
2018-10-06T11:25:50.400Z,94143.57
2018-10-06T11:28:19.678Z,94141.05
2018-10-06T11:30:48.062Z,94139.05
2018-10-06T11:33:16.468Z,94138.20
2018-10-06T11:35:44.800Z,94141.52
2018-10-06T11:38:13.369Z,94129.48
2018-10-06T11:40:42.746Z,94122.19
2018-10-06T11:43:12.152Z,94118.78
2018-10-06T11:45:41.777Z,94114.00
2018-10-06T11:48:10.529Z,94105.38
2018-10-06T11:50:39.581Z,94108.09
2018-10-06T11:53:08.132Z,94099.08
2018-10-06T11:55:36.584Z,94092.78
2018-10-06T11:58:05.390Z,94094.61
2018-10-06T12:00:34.412Z,94087.23
2018-10-06T12:03:03.278Z,94086.13
2018-10-06T12:05:32.309Z,94075.61
2018-10-06T12:08:00.790Z,94074.94
2018-10-06T12:10:29.426Z,94069.88
2018-10-06T12:12:58.359Z,94066.69
2018-10-06T12:15:26.869Z,94064.81
2018-10-06T12:17:55.340Z,94069.40
2018-10-06T12:20:23.863Z,94061.80
2018-10-06T12:22:54.498Z,94054.52
2018-10-06T12:25:23.388Z,94058.75
2018-10-06T12:27:52.601Z,94055.98
2018-10-06T12:30:22.036Z,94055.77
2018-10-06T12:32:51.986Z,94045.41
2018-10-06T12:35:21.088Z,94038.21
2018-10-06T12:37:49.787Z,94040.98
2018-10-06T12:40:18.222Z,94026.97
2018-10-06T12:42:46.907Z,94031.97
2018-10-06T12:45:15.429Z,94025.63
2018-10-06T12:47:44.140Z,94020.95
2018-10-06T12:50:12.835Z,94018.08
2018-10-06T12:52:41.410Z,94016.45
2018-10-06T12:55:10.081Z,94006.28
2018-10-06T12:57:39.636Z,94013.67
2018-10-06T13:00:08.357Z,94009.73
2018-10-06T13:02:37.016Z,94002.26
2018-10-06T13:05:05.627Z,93996.85
2018-10-06T13:07:34.398Z,93992.35
2018-10-06T13:10:03.184Z,93994.67
2018-10-06T13:12:32.219Z,93997.27
2018-10-06T13:15:01.137Z,93991.41
2018-10-06T13:17:30.718Z,93989.08
2018-10-06T13:19:59.769Z,93986.97
2018-10-06T13:22:28.617Z,93983.11
2018-10-06T13:24:57.631Z,93981.47
2018-10-06T13:27:26.180Z,93986.88
2018-10-06T13:29:54.912Z,93981.04
2018-10-06T13:32:23.774Z,93973.66
2018-10-06T13:34:52.692Z,93968.28
2018-10-06T13:37:21.585Z,93970.33
2018-10-06T13:39:50.383Z,93966.55
2018-10-06T13:42:19.346Z,93962.75
2018-10-06T13:44:48.227Z,93953.47
2018-10-06T13:47:16.944Z,93959.19
2018-10-06T13:49:45.759Z,93949.61
2018-10-06T13:52:14.668Z,93954.75
2018-10-06T13:54:46.000Z,93952.99
2018-10-06T13:57:15.456Z,93945.30
2018-10-06T13:59:44.147Z,93943.88
2018-10-06T14:02:12.732Z,93944.94
2018-10-06T14:04:41.141Z,93940.26
2018-10-06T14:07:09.727Z,93939.39
2018-10-06T14:09:38.256Z,93935.41
2018-10-06T14:12:07.184Z,93932.18
2018-10-06T14:14:35.571Z,93931.48
2018-10-06T14:17:03.991Z,93930.65
2018-10-06T14:19:32.578Z,93928.69
2018-10-06T14:22:01.204Z,93925.60
2018-10-06T14:24:29.849Z,93926.95
2018-10-06T14:26:58.517Z,93918.39
2018-10-06T14:29:26.966Z,93925.89
2018-10-06T14:31:55.378Z,93925.36
2018-10-06T14:34:23.730Z,93916.38
2018-10-06T14:36:53.394Z,93914.09
2018-10-06T14:39:21.887Z,93922.16
2018-10-06T14:41:50.417Z,93919.34
2018-10-06T14:44:19.205Z,93917.23
2018-10-06T14:46:47.861Z,93918.55
2018-10-06T14:49:16.407Z,93919.75
2018-10-06T14:51:46.239Z,93921.64
2018-10-06T14:54:14.611Z,93916.67
2018-10-06T14:56:43.506Z,93914.93
2018-10-06T14:59:13.076Z,93913.08
2018-10-06T15:01:43.597Z,93908.91
2018-10-06T15:04:12.046Z,93905.70
2018-10-06T15:06:40.422Z,93907.52
2018-10-06T15:09:10.134Z,93906.13
2018-10-06T15:11:39.240Z,93903.56
2018-10-06T15:14:07.884Z,93906.26
2018-10-06T15:16:36.721Z,93904.41
2018-10-06T15:19:05.611Z,93908.83
2018-10-06T15:21:34.006Z,93908.69
2018-10-06T15:24:02.735Z,93904.28
2018-10-06T15:26:31.503Z,93910.31
2018-10-06T15:29:00.829Z,93914.38
2018-10-06T15:31:29.365Z,93912.82
2018-10-06T15:33:57.788Z,93910.02
2018-10-06T15:36:26.537Z,93911.37
2018-10-06T15:38:55.053Z,93913.13
2018-10-06T15:41:24.094Z,93904.06
2018-10-06T15:43:53.320Z,93902.48
2018-10-06T15:46:22.207Z,93900.91
2018-10-06T15:48:51.195Z,93906.00
2018-10-06T15:51:19.711Z,93908.80
2018-10-06T15:53:48.191Z,93892.28
2018-10-06T15:56:17.051Z,93905.39
2018-10-06T15:58:45.431Z,93902.63
2018-10-06T16:01:13.990Z,93898.61
2018-10-06T16:03:42.386Z,93894.74
2018-10-06T16:06:11.287Z,93891.14
2018-10-06T16:08:40.005Z,93898.74
2018-10-06T16:11:08.901Z,93897.14
2018-10-06T16:13:37.494Z,93896.64
2018-10-06T16:16:05.804Z,93903.45
2018-10-06T16:18:34.685Z,93898.38
2018-10-06T16:21:03.735Z,93900.07
2018-10-06T16:23:32.091Z,93903.41
2018-10-06T16:26:00.621Z,93897.56
2018-10-06T16:28:29.349Z,93911.66
2018-10-06T16:30:58.333Z,93899.48
2018-10-06T16:33:26.947Z,93905.19
2018-10-06T16:35:55.366Z,93906.88
2018-10-06T16:38:23.724Z,93904.10
2018-10-06T16:40:52.173Z,93911.63
2018-10-06T16:43:20.740Z,93909.48
2018-10-06T16:45:49.239Z,93913.64
2018-10-06T16:48:17.661Z,93912.52
2018-10-06T16:50:46.477Z,93912.53
2018-10-06T16:53:15.389Z,93913.03
2018-10-06T16:55:44.551Z,93905.27
2018-10-06T16:58:13.845Z,93909.05
2018-10-06T17:00:46.083Z,93907.12
2018-10-06T17:03:15.690Z,93905.33
2018-10-06T17:05:45.362Z,93912.00
2018-10-06T17:08:14.168Z,93908.78
2018-10-06T17:10:42.875Z,93913.22
2018-10-06T17:13:11.661Z,93911.41
2018-10-06T17:15:40.729Z,93913.70
2018-10-06T17:18:09.904Z,93920.59
2018-10-06T17:20:39.017Z,93915.59
2018-10-06T17:23:07.945Z,93920.44
2018-10-06T17:25:36.649Z,93925.66
2018-10-06T17:28:07.333Z,93918.56
2018-10-06T17:30:36.018Z,93924.99
2018-10-06T17:33:04.492Z,93922.34
2018-10-06T17:35:33.425Z,93922.51
2018-10-06T17:38:02.026Z,93919.53
2018-10-06T17:40:30.628Z,93930.34
2018-10-06T17:42:59.521Z,93924.63
2018-10-06T17:45:29.553Z,93932.45
2018-10-06T17:47:59.067Z,93928.05
2018-10-06T17:50:28.156Z,93920.67
2018-10-06T17:52:57.016Z,93922.98
2018-10-06T17:55:25.745Z,93925.45
2018-10-06T17:57:54.288Z,93928.19
2018-10-06T18:00:22.868Z,93929.80
2018-10-06T18:02:51.272Z,93927.28
2018-10-06T18:05:19.596Z,93924.57
2018-10-06T18:07:48.176Z,93923.22
2018-10-06T18:10:16.694Z,93922.17
2018-10-06T18:12:45.230Z,93921.98
2018-10-06T18:15:13.690Z,93925.28
2018-10-06T18:17:42.757Z,93926.75
2018-10-06T18:20:11.141Z,93929.73
2018-10-06T18:22:40.208Z,93927.21
2018-10-06T18:25:08.632Z,93923.48
2018-10-06T18:27:37.203Z,93921.89
2018-10-06T18:30:05.802Z,93925.22
2018-10-06T18:32:34.433Z,93926.34
2018-10-06T18:35:03.026Z,93925.92
2018-10-06T18:37:31.791Z,93931.89
2018-10-06T18:40:00.540Z,93934.20
2018-10-06T18:42:29.266Z,93930.44
2018-10-06T18:44:58.871Z,93930.13
2018-10-06T18:47:27.777Z,93933.77
2018-10-06T18:49:56.875Z,93927.20
2018-10-06T18:52:25.548Z,93930.62
2018-10-06T18:54:54.333Z,93926.91
2018-10-06T18:57:22.912Z,93921.66
2018-10-06T18:59:52.059Z,93925.14
2018-10-06T19:02:21.632Z,93926.84
2018-10-06T19:04:50.487Z,93923.45
2018-10-06T19:07:19.121Z,93928.13
2018-10-06T19:09:48.193Z,93925.45
2018-10-06T19:12:17.637Z,93924.11
2018-10-06T19:14:47.355Z,93926.51
2018-10-06T19:17:15.969Z,93935.94
2018-10-06T19:19:45.477Z,93939.66
2018-10-06T19:22:14.845Z,93945.32
2018-10-06T19:24:43.633Z,93937.22
2018-10-06T19:27:12.319Z,93943.97
2018-10-06T19:29:40.886Z,93940.84
2018-10-06T19:32:09.227Z,93939.34
2018-10-06T19:34:37.786Z,93940.00
2018-10-06T19:37:06.263Z,93939.47
2018-10-06T19:39:34.741Z,93935.31
2018-10-06T19:42:03.791Z,93938.57
2018-10-06T19:44:32.423Z,93935.58
2018-10-06T19:47:01.038Z,93932.84
2018-10-06T19:49:29.441Z,93933.13
2018-10-06T19:51:57.895Z,93932.70
2018-10-06T19:54:26.407Z,93931.80
2018-10-06T19:56:54.798Z,93931.74
2018-10-06T19:59:23.529Z,93929.69
2018-10-06T20:01:52.032Z,93926.63
2018-10-06T20:04:20.548Z,93930.02
2018-10-06T20:06:48.864Z,93929.08
2018-10-06T20:09:17.323Z,93935.64
2018-10-06T20:11:45.928Z,93934.08
2018-10-06T20:14:14.792Z,93935.13
2018-10-06T20:19:11.048Z,93937.53
2018-10-06T20:21:39.561Z,93934.22
2018-10-06T20:24:08.213Z,93939.52
2018-10-06T20:26:37.018Z,93929.58
2018-10-06T20:29:06.230Z,93928.28
2018-10-06T20:31:34.810Z,93934.95
2018-10-06T20:34:03.296Z,93934.45
2018-10-06T20:36:31.752Z,93923.03
2018-10-06T20:39:01.203Z,93926.94
2018-10-06T20:41:29.638Z,93916.41
2018-10-06T20:43:57.975Z,93921.55
2018-10-06T20:46:26.376Z,93921.37
2018-10-06T20:48:54.847Z,93928.28
2018-10-06T20:51:23.250Z,93925.80
2018-10-06T20:53:51.659Z,93921.47
2018-10-06T20:56:20.048Z,93925.97
2018-10-06T20:58:48.514Z,93929.70
2018-10-06T21:01:16.914Z,93926.98
2018-10-06T21:03:46.140Z,93931.05
2018-10-06T21:06:14.798Z,93932.21
2018-10-06T21:08:43.299Z,93929.41
2018-10-06T21:11:11.796Z,93925.00
2018-10-06T21:13:40.112Z,93923.45
2018-10-06T21:16:08.411Z,93918.09
2018-10-06T21:18:36.825Z,93925.47
2018-10-06T21:21:05.142Z,93922.11
2018-10-06T21:23:33.395Z,93920.08
2018-10-06T21:26:01.687Z,93917.11
2018-10-06T21:28:30.137Z,93913.36
2018-10-06T21:30:58.717Z,93914.31
2018-10-06T21:33:27.070Z,93916.25
2018-10-06T21:35:55.312Z,93915.17
2018-10-06T21:38:23.628Z,93917.61
2018-10-06T21:40:51.906Z,93916.61
2018-10-06T21:43:20.104Z,93916.61
2018-10-06T21:45:48.452Z,93906.69
2018-10-06T21:48:16.786Z,93907.52
2018-10-06T21:50:45.146Z,93905.60
2018-10-06T21:53:13.410Z,93906.38
2018-10-06T21:55:41.693Z,93905.44
2018-10-06T21:58:09.988Z,93899.98
2018-10-06T22:00:38.245Z,93904.53
2018-10-06T22:03:06.564Z,93901.89
2018-10-06T22:05:34.901Z,93907.00
2018-10-06T22:08:03.073Z,93901.19
2018-10-06T22:10:31.354Z,93905.75
2018-10-06T22:12:59.381Z,93898.91
2018-10-06T22:15:27.441Z,93897.68
2018-10-06T22:17:55.570Z,93901.80
2018-10-06T22:20:23.616Z,93900.34
2018-10-06T22:22:51.636Z,93902.14
2018-10-06T22:25:19.670Z,93907.52
2018-10-06T22:27:47.755Z,93908.51
2018-10-06T22:30:15.844Z,93905.84
2018-10-06T22:32:44.731Z,93906.47
2018-10-06T22:35:12.817Z,93907.77
2018-10-06T22:37:40.801Z,93909.75
2018-10-06T22:40:08.904Z,93911.94
2018-10-06T22:42:36.978Z,93916.81
2018-10-06T22:45:05.315Z,93910.94
2018-10-06T22:47:33.412Z,93908.28
2018-10-06T22:50:01.457Z,93913.81
2018-10-06T22:52:29.486Z,93914.06
2018-10-06T22:54:57.554Z,93918.94
2018-10-06T22:57:25.621Z,93918.39
2018-10-06T22:59:53.628Z,93919.52
2018-10-06T23:02:21.672Z,93919.41
2018-10-06T23:04:49.677Z,93919.75
2018-10-06T23:07:17.783Z,93920.45
2018-10-06T23:09:45.857Z,93919.75
2018-10-06T23:12:13.897Z,93917.88
2018-10-06T23:14:41.993Z,93919.98
2018-10-06T23:17:10.037Z,93918.53
2018-10-06T23:19:38.198Z,93909.48
2018-10-06T23:22:06.467Z,93914.70
2018-10-06T23:24:34.520Z,93910.95
2018-10-06T23:27:02.648Z,93910.36
2018-10-06T23:29:30.744Z,93907.95
2018-10-06T23:31:58.764Z,93905.69
2018-10-06T23:34:26.873Z,93905.28
2018-10-06T23:36:54.929Z,93907.00
2018-10-06T23:39:23.025Z,93900.33
2018-10-06T23:41:51.118Z,93901.88
2018-10-06T23:44:19.185Z,93899.84
2018-10-06T23:46:47.254Z,93891.84
2018-10-06T23:49:15.318Z,93886.67
2018-10-06T23:51:43.404Z,93886.86
2018-10-06T23:54:11.434Z,93881.44
2018-10-06T23:56:39.555Z,93872.52
2018-10-06T23:59:07.988Z,93872.98
